Time;durP1;ratioP1;P1;durP2;ratioP2;P2;SDS_P1;SDS_P2;PMS_P1;PMS_P2;Temp;Humidity;BMP_temperature;BMP_pressure;BME280_temperature;BME280_humidity;BME280_pressure;Samples;Min_cycle;Max_cycle;Signal;HPM_P1;HPM_P2
2022/09/08 00:01:17;;;;;;;1.10;0.40;;;20.30;97.80;;;;;;4902603;29;20055;-75
2022/09/08 00:03:45;;;;;;;3.55;0.68;;;20.10;98.00;;;;;;4902975;29;20036;-75
2022/09/08 00:06:16;;;;;;;1.40;0.32;;;19.70;98.50;;;;;;4911563;29;20115;-74
2022/09/08 00:08:45;;;;;;;3.10;0.57;;;19.60;98.80;;;;;;4913683;29;20032;-73
2022/09/08 00:11:17;;;;;;;3.90;0.63;;;19.80;98.60;;;;;;4900931;29;20064;-76
2022/09/08 00:13:45;;;;;;;1.88;0.70;;;19.80;98.70;;;;;;4900322;29;20055;-77
2022/09/08 00:16:18;;;;;;;2.17;0.70;;;19.90;98.40;;;;;;4903706;29;20126;-74
2022/09/08 00:18:47;;;;;;;1.63;0.50;;;19.90;98.60;;;;;;4898282;29;20036;-72
2022/09/08 00:21:15;;;;;;;2.20;1.17;;;20.30;98.70;;;;;;4904150;29;20171;-76
2022/09/08 00:23:42;;;;;;;6.88;1.02;;;20.80;98.10;;;;;;4909237;29;20062;-74
2022/09/08 00:26:10;;;;;;;1.00;0.57;;;21.10;97.80;;;;;;4904920;29;20418;-75
2022/09/08 00:28:37;;;;;;;2.70;0.75;;;21.60;97.20;;;;;;4903731;29;20024;-76
2022/09/08 00:31:05;;;;;;;5.18;0.70;;;22.00;96.80;;;;;;4904868;29;20043;-76
2022/09/08 00:33:33;;;;;;;3.83;0.50;;;22.40;96.20;;;;;;4901373;29;20040;-75
2022/09/08 00:36:03;;;;;;;2.85;0.60;;;22.40;95.00;;;;;;4899704;29;20582;-77
2022/09/08 00:38:32;;;;;;;2.30;0.75;;;22.50;95.40;;;;;;4911131;29;20032;-74
2022/09/08 00:40:59;;;;;;;2.78;0.57;;;22.80;95.60;;;;;;4908844;29;20067;-74
2022/09/08 00:43:42;;;;;;;3.80;0.88;;;22.80;94.70;;;;;;4905173;29;20032;-78
2022/09/08 00:46:16;;;;;;;1.55;0.32;;;22.50;94.90;;;;;;4885828;29;20411;-77
2022/09/08 00:48:48;;;;;;;1.95;0.50;;;22.80;94.80;;;;;;4907983;29;20060;-76
2022/09/08 00:51:17;;;;;;;0.95;0.57;;;23.00;94.80;;;;;;4898125;29;20040;-75
2022/09/08 00:53:46;;;;;;;2.08;0.40;;;23.20;94.50;;;;;;4909123;29;20051;-74
2022/09/08 00:56:13;;;;;;;9.02;1.27;;;23.50;93.90;;;;;;4909724;29;20036;-76
2022/09/08 00:58:41;;;;;;;0.88;0.40;;;23.80;94.20;;;;;;4911825;29;20046;-76
2022/09/08 01:01:09;;;;;;;1.83;0.50;;;24.50;93.30;;;;;;4908366;29;20028;-74
2022/09/08 01:03:40;;;;;;;0.63;0.20;;;25.00;92.60;;;;;;4913813;29;20067;-77
2022/09/08 01:06:21;;;;;;;1.73;0.50;;;24.90;92.70;;;;;;4909633;29;20108;-76
2022/09/08 01:14:44;;;;;;;2.70;0.43;;;24.60;92.80;;;;;;4901519;29;20039;-75
2022/09/08 01:17:21;;;;;;;1.42;0.43;;;24.70;92.40;;;;;;4908179;29;20037;-75
2022/09/08 01:19:49;;;;;;;1.80;0.30;;;24.70;92.10;;;;;;4900329;29;20036;-74
2022/09/08 01:22:58;;;;;;;5.18;0.73;;;24.90;91.70;;;;;;4900541;29;20047;-75
2022/09/08 01:25:37;;;;;;;3.60;0.82;;;24.80;92.30;;;;;;4901347;29;20391;-76
2022/09/08 01:28:27;;;;;;;0.68;0.25;;;24.50;92.10;;;;;;4901335;29;20388;-74
2022/09/08 01:30:55;;;;;;;0.90;0.30;;;24.50;92.00;;;;;;4901308;29;20134;-74
2022/09/08 01:33:23;;;;;;;2.85;0.35;;;24.30;92.50;;;;;;4909457;29;20653;-74
2022/09/08 01:35:50;;;;;;;1.33;0.30;;;23.80;92.50;;;;;;4911733;29;20040;-73
2022/09/08 01:38:18;;;;;;;1.27;0.30;;;24.20;92.50;;;;;;4895801;29;20052;-74
2022/09/08 01:40:45;;;;;;;2.20;0.68;;;24.30;92.40;;;;;;4904312;29;20477;-73
2022/09/08 01:43:13;;;;;;;1.35;0.30;;;24.20;92.30;;;;;;4900580;29;20036;-74
2022/09/08 01:45:41;;;;;;;0.50;0.20;;;24.10;92.30;;;;;;4900216;29;20024;-74
2022/09/08 01:48:09;;;;;;;1.20;0.30;;;24.20;92.20;;;;;;4898557;29;20024;-74
2022/09/08 01:50:36;;;;;;;2.28;0.40;;;23.90;92.30;;;;;;4904289;29;20043;-73
2022/09/08 01:53:04;;;;;;;1.48;0.40;;;23.80;92.20;;;;;;4903857;29;20035;-74
2022/09/08 01:55:31;;;;;;;1.40;0.50;;;23.80;93.10;;;;;;4904547;29;20036;-74
2022/09/08 01:57:59;;;;;;;1.30;0.50;;;23.70;92.70;;;;;;4907747;29;20028;-72
2022/09/08 02:00:26;;;;;;;1.63;0.40;;;23.70;93.00;;;;;;4903190;29;20032;-75
2022/09/08 02:02:54;;;;;;;2.13;0.65;;;23.80;93.00;;;;;;4911126;29;20052;-75
2022/09/08 02:05:21;;;;;;;1.58;0.40;;;24.20;92.10;;;;;;4903019;29;20032;-75
2022/09/08 02:07:49;;;;;;;3.63;0.82;;;24.60;93.40;;;;;;4904229;29;20084;-75
2022/09/08 02:10:17;;;;;;;0.73;0.40;;;25.00;91.60;;;;;;4903541;29;20047;-74
2022/09/08 02:12:44;;;;;;;2.28;0.40;;;25.10;91.60;;;;;;4904477;29;20115;-75
2022/09/08 02:15:11;;;;;;;0.52;0.45;;;25.20;91.60;;;;;;4904255;29;20067;-75
2022/09/08 02:17:39;;;;;;;0.95;0.38;;;25.30;91.20;;;;;;4902401;29;20050;-76
2022/09/08 02:20:07;;;;;;;0.75;0.32;;;25.40;91.60;;;;;;4902294;29;20754;-77
2022/09/08 02:22:34;;;;;;;1.95;0.47;;;25.70;91.70;;;;;;4903137;29;20091;-76
2022/09/08 02:25:01;;;;;;;1.95;0.47;;;26.30;92.20;;;;;;4887300;29;20060;-77
2022/09/08 02:27:29;;;;;;;1.10;0.30;;;26.60;91.00;;;;;;4906424;29;20036;-76
2022/09/08 02:29:56;;;;;;;3.22;0.82;;;26.60;88.20;;;;;;4908626;29;20123;-73
2022/09/08 02:32:24;;;;;;;0.50;0.30;;;26.60;88.50;;;;;;4899659;29;20033;-77
2022/09/08 02:34:52;;;;;;;4.35;0.60;;;26.30;88.70;;;;;;4900806;29;20028;-77
2022/09/08 02:37:20;;;;;;;1.17;0.70;;;26.40;88.80;;;;;;4905681;29;20048;-78
2022/09/08 02:39:47;;;;;;;0.57;0.38;;;26.20;89.40;;;;;;4907690;29;20194;-79
2022/09/08 02:42:15;;;;;;;2.33;0.75;;;26.10;89.20;;;;;;4905614;29;20047;-78
2022/09/08 02:44:42;;;;;;;2.28;0.40;;;26.10;89.40;;;;;;4902140;29;20505;-75
2022/09/08 02:47:10;;;;;;;1.90;0.60;;;25.90;88.80;;;;;;4905582;29;20115;-75
2022/09/08 02:49:37;;;;;;;1.23;0.50;;;25.90;90.00;;;;;;4904477;29;20495;-74
2022/09/08 02:52:05;;;;;;;1.15;0.68;;;26.30;90.30;;;;;;4904581;29;20039;-76
2022/09/08 02:54:33;;;;;;;1.83;0.45;;;26.60;89.20;;;;;;4923390;29;20034;-77
2022/09/08 02:57:00;;;;;;;0.70;0.47;;;27.00;86.80;;;;;;4906196;29;20035;-77
2022/09/08 02:59:27;;;;;;;1.27;0.40;;;26.60;86.40;;;;;;4905245;29;20035;-78
2022/09/08 03:01:58;;;;;;;1.30;0.60;;;26.40;87.70;;;;;;4903955;29;20036;-76
2022/09/08 03:04:26;;;;;;;2.13;1.30;;;26.60;86.50;;;;;;4903538;29;20052;-77
2022/09/08 03:06:53;;;;;;;1.23;0.45;;;26.50;86.30;;;;;;4902007;29;20399;-77
2022/09/08 03:09:20;;;;;;;1.08;0.70;;;26.20;85.70;;;;;;4909999;29;20188;-77
2022/09/08 03:11:48;;;;;;;1.08;0.50;;;26.00;86.80;;;;;;4907660;29;20032;-79
2022/09/08 03:14:15;;;;;;;2.55;0.60;;;25.70;87.20;;;;;;4913647;29;20025;-79
2022/09/08 03:16:45;;;;;;;1.15;0.50;;;25.50;87.20;;;;;;4901118;29;20084;-79
2022/09/08 03:19:13;;;;;;;0.80;0.60;;;24.90;87.50;;;;;;4914188;29;20051;-76
2022/09/08 03:21:40;;;;;;;2.42;0.35;;;24.30;89.10;;;;;;4911245;29;20036;-78
2022/09/08 03:24:07;;;;;;;1.65;0.65;;;23.90;90.00;;;;;;4913877;29;20562;-79
2022/09/08 03:26:35;;;;;;;0.75;0.45;;;23.50;90.50;;;;;;4911913;29;20032;-79
2022/09/08 03:29:02;;;;;;;1.25;0.50;;;23.40;90.90;;;;;;4910878;29;20028;-79
2022/09/08 03:31:30;;;;;;;1.70;0.52;;;23.60;91.30;;;;;;4912501;29;20042;-76
2022/09/08 03:33:57;;;;;;;1.35;0.43;;;23.60;90.60;;;;;;4914256;29;20024;-78
2022/09/08 03:36:24;;;;;;;2.83;0.80;;;23.60;91.10;;;;;;4910516;29;20021;-78
2022/09/08 03:38:52;;;;;;;1.58;0.88;;;23.60;91.30;;;;;;4913101;29;20027;-76
2022/09/08 03:41:20;;;;;;;1.65;0.55;;;23.60;91.10;;;;;;4913289;29;20051;-74
2022/09/08 03:43:51;;;;;;;1.30;0.40;;;23.60;91.30;;;;;;4916473;29;20036;-75
2022/09/08 03:46:19;;;;;;;1.08;0.40;;;23.50;91.50;;;;;;4914914;29;20036;-77
2022/09/08 03:48:46;;;;;;;2.22;0.40;;;23.40;91.50;;;;;;4914611;29;20112;-79
2022/09/08 03:51:25;;;;;;;0.68;0.50;;;23.30;91.30;;;;;;4912538;29;20120;-78
2022/09/08 03:56:53;;;;;;;0.88;0.65;;;23.30;91.50;;;;;;4875578;29;20080;-79
2022/09/08 03:59:20;;;;;;;1.02;0.50;;;23.60;91.50;;;;;;4914512;29;20040;-76
2022/09/08 04:01:47;;;;;;;0.85;0.38;;;23.40;91.20;;;;;;4918934;29;20130;-77
2022/09/08 04:04:15;;;;;;;3.03;0.55;;;23.20;91.40;;;;;;4923249;29;20028;-77
2022/09/08 04:06:42;;;;;;;1.08;0.30;;;23.10;91.60;;;;;;4910347;29;20463;-78
2022/09/08 04:09:10;;;;;;;3.28;0.52;;;22.90;91.90;;;;;;4911732;29;20392;-80
2022/09/08 04:11:38;;;;;;;2.40;0.57;;;22.80;92.00;;;;;;4912774;29;20043;-79
2022/09/08 04:14:05;;;;;;;1.45;0.40;;;22.60;91.90;;;;;;4914477;29;20357;-76
2022/09/08 04:16:33;;;;;;;0.98;0.70;;;22.40;92.30;;;;;;4898374;29;20035;-75
2022/09/08 04:19:01;;;;;;;2.45;0.22;;;22.30;92.50;;;;;;4916786;29;20043;-74
2022/09/08 04:21:28;;;;;;;2.70;0.35;;;22.20;93.00;;;;;;4899922;29;20088;-77
2022/09/08 04:23:55;;;;;;;2.08;0.60;;;22.30;93.00;;;;;;4913117;29;20116;-79
2022/09/08 04:26:23;;;;;;;6.25;0.60;;;22.20;93.10;;;;;;4910716;29;20025;-78
2022/09/08 04:28:50;;;;;;;2.63;0.50;;;22.30;92.90;;;;;;4910533;29;20059;-77
2022/09/08 04:31:21;;;;;;;2.20;0.43;;;22.30;93.20;;;;;;4911724;29;20111;-77
2022/09/08 04:33:49;;;;;;;2.60;0.50;;;22.40;93.10;;;;;;4913956;29;20032;-76
2022/09/08 04:36:19;;;;;;;1.00;0.30;;;22.50;93.20;;;;;;4911443;29;20028;-75
2022/09/08 04:38:47;;;;;;;2.63;0.30;;;22.40;92.90;;;;;;4909924;29;20037;-75
2022/09/08 04:41:17;;;;;;;1.60;0.35;;;22.30;92.80;;;;;;4910011;29;20487;-75
2022/09/08 04:43:44;;;;;;;1.17;0.40;;;22.20;92.90;;;;;;4911626;29;20036;-74
2022/09/08 04:46:14;;;;;;;6.38;0.50;;;22.20;93.20;;;;;;4911860;29;20039;-75
2022/09/08 04:48:43;;;;;;;6.32;0.50;;;22.30;93.10;;;;;;4910822;29;20122;-75
2022/09/08 04:51:17;;;;;;;1.75;0.30;;;22.60;92.90;;;;;;4907763;29;20039;-75
2022/09/08 04:53:46;;;;;;;1.38;0.22;;;22.80;92.70;;;;;;4909776;29;20020;-74
2022/09/08 04:56:15;;;;;;;1.23;0.30;;;22.90;92.40;;;;;;4911995;29;20036;-75
2022/09/08 04:58:43;;;;;;;1.27;0.32;;;22.70;92.60;;;;;;4912757;29;20106;-75
2022/09/08 05:01:14;;;;;;;2.45;0.50;;;22.70;92.70;;;;;;4909829;29;20388;-78
2022/09/08 05:03:42;;;;;;;1.23;0.47;;;22.60;92.70;;;;;;4909732;29;20463;-79
2022/09/08 05:06:12;;;;;;;2.17;0.40;;;22.60;92.70;;;;;;4909678;29;20036;-76
2022/09/08 05:08:41;;;;;;;3.42;0.60;;;22.30;92.90;;;;;;4911452;29;20107;-77
2022/09/08 05:11:09;;;;;;;5.35;0.50;;;22.30;93.20;;;;;;4905097;29;20403;-79
2022/09/08 05:13:37;;;;;;;1.80;0.40;;;22.30;93.30;;;;;;4910263;29;20036;-77
2022/09/08 05:16:10;;;;;;;3.25;0.50;;;22.50;93.00;;;;;;4907750;29;20032;-75
2022/09/08 05:18:38;;;;;;;2.42;0.50;;;22.50;92.70;;;;;;4909263;29;20111;-77
2022/09/08 05:21:06;;;;;;;4.03;0.45;;;22.80;93.10;;;;;;4907579;29;20501;-77
2022/09/08 05:23:34;;;;;;;3.65;0.95;;;22.90;92.80;;;;;;4913395;29;20040;-75
2022/09/08 05:26:06;;;;;;;3.38;0.95;;;22.80;92.70;;;;;;4909890;29;20111;-75
2022/09/08 05:28:38;;;;;;;6.20;1.38;;;22.80;92.70;;;;;;4907009;29;20039;-75
2022/09/08 05:31:07;;;;;;;3.90;1.35;;;22.80;93.10;;;;;;4916045;29;20084;-76
2022/09/08 05:33:35;;;;;;;2.40;0.60;;;22.70;92.90;;;;;;4920784;29;20020;-77
2022/09/08 05:36:16;;;;;;;4.18;1.05;;;22.70;92.70;;;;;;4916613;29;20072;-79
2022/09/08 05:38:44;;;;;;;4.05;0.32;;;22.70;92.70;;;;;;4919077;29;20036;-78
2022/09/08 05:41:13;;;;;;;2.40;0.43;;;22.60;92.80;;;;;;4916136;29;20047;-78
2022/09/08 05:43:42;;;;;;;1.98;0.70;;;22.50;92.90;;;;;;4923084;29;20455;-75
2022/09/08 05:46:10;;;;;;;1.40;0.55;;;22.30;92.60;;;;;;4915763;29;20024;-76
2022/09/08 05:48:38;;;;;;;3.17;0.73;;;21.90;93.30;;;;;;4919463;29;20115;-77
2022/09/08 05:51:12;;;;;;;6.82;0.70;;;21.60;93.40;;;;;;4917278;29;20076;-77
2022/09/08 05:53:39;;;;;;;1.58;1.15;;;21.40;93.60;;;;;;4912788;29;20028;-77
2022/09/08 05:56:08;;;;;;;4.85;1.35;;;21.30;93.60;;;;;;4917034;29;20094;-77
2022/09/08 05:58:36;;;;;;;5.22;1.20;;;21.20;93.40;;;;;;4918013;29;20047;-75
2022/09/08 06:01:13;;;;;;;1.40;0.60;;;21.10;93.30;;;;;;4916633;29;20035;-75
2022/09/08 06:03:40;;;;;;;4.25;0.50;;;21.00;93.50;;;;;;4916629;29;20036;-75
2022/09/08 06:06:10;;;;;;;2.92;0.70;;;21.00;93.40;;;;;;4912026;29;20417;-75
2022/09/08 06:08:40;;;;;;;1.60;0.73;;;21.00;93.50;;;;;;4918407;29;20032;-75
2022/09/08 06:11:09;;;;;;;5.20;0.60;;;21.00;93.30;;;;;;4917754;29;20499;-74
2022/09/08 06:13:37;;;;;;;4.25;0.60;;;20.90;93.10;;;;;;4917920;29;20464;-74
2022/09/08 06:16:12;;;;;;;3.33;0.50;;;20.90;93.10;;;;;;4915294;29;20083;-74
2022/09/08 06:18:42;;;;;;;2.05;0.57;;;20.90;93.70;;;;;;4921213;29;20175;-77
2022/09/08 06:21:12;;;;;;;4.57;0.70;;;20.80;94.10;;;;;;4908036;29;20040;-75
2022/09/08 06:23:40;;;;;;;2.45;0.68;;;20.70;94.20;;;;;;4902246;29;20036;-76
2022/09/08 06:26:41;;;;;;;3.25;0.73;;;20.70;94.00;;;;;;4909100;29;20409;-76
2022/09/08 06:29:27;;;;;;;3.72;0.52;;;20.60;94.20;;;;;;4906514;29;20036;-75
2022/09/08 06:32:03;;;;;;;;;;;20.50;94.60;;;;;;4916797;29;20032;-76
2022/09/08 06:34:41;;;;;;;3.17;0.70;;;20.50;94.90;;;;;;4922294;29;19974;-78
2022/09/08 06:37:38;;;;;;;2.50;0.65;;;20.40;95.10;;;;;;4913585;29;20458;-77
2022/09/08 06:40:25;;;;;;;5.68;1.00;;;20.40;95.40;;;;;;4892564;29;20048;-76
2022/09/08 06:43:19;;;;;;;2.72;1.48;;;20.30;95.70;;;;;;4915106;29;20483;-75
2022/09/08 06:45:55;;;;;;;2.20;0.52;;;20.20;95.70;;;;;;4913340;29;20028;-76
2022/09/08 06:48:35;;;;;;;4.70;1.20;;;20.10;95.90;;;;;;4912765;29;20491;-74
2022/09/08 06:51:33;;;;;;;6.50;1.05;;;20.00;96.10;;;;;;4905304;29;20033;-75
2022/09/08 06:54:37;;;;;;;2.10;1.17;;;20.00;96.30;;;;;;4903612;29;20055;-74
2022/09/08 06:57:11;;;;;;;5.00;0.88;;;19.80;96.30;;;;;;4914597;29;20040;-75
2022/09/08 06:59:42;;;;;;;4.13;0.73;;;19.70;96.40;;;;;;4912257;29;20044;-76
2022/09/08 07:02:34;;;;;;;5.78;1.17;;;19.70;96.50;;;;;;4914162;29;20048;-75
2022/09/08 07:05:12;;;;;;;5.75;1.20;;;19.60;96.30;;;;;;4906957;29;20087;-75
2022/09/08 07:07:45;;;;;;;4.50;0.57;;;19.50;96.50;;;;;;4908223;29;20476;-75
2022/09/08 07:10:25;;;;;;;3.45;0.70;;;19.30;96.80;;;;;;4913310;29;20456;-74
2022/09/08 07:13:28;;;;;;;4.22;1.23;;;19.20;97.10;;;;;;4910431;29;20031;-76
2022/09/08 07:16:17;;;;;;;4.22;0.40;;;19.10;97.30;;;;;;4912591;29;20070;-74
2022/09/08 07:18:50;;;;;;;2.72;0.50;;;19.10;97.60;;;;;;4913975;29;20463;-73
2022/09/08 07:22:02;;;;;;;3.50;0.70;;;19.00;97.80;;;;;;4913049;29;20028;-73
2022/09/08 07:24:36;;;;;;;5.80;1.77;;;18.90;97.90;;;;;;4899443;29;20052;-74
2022/09/08 07:27:11;;;;;;;2.85;0.40;;;18.90;98.10;;;;;;4914433;29;20028;-75
2022/09/08 07:29:48;;;;;;;4.13;0.98;;;18.80;98.20;;;;;;4914243;29;20036;-76
2022/09/08 07:32:43;;;;;;;4.28;1.02;;;18.70;98.40;;;;;;4909349;29;20039;-76
2022/09/08 07:35:21;;;;;;;1.48;0.45;;;18.70;98.40;;;;;;4901499;29;20044;-78
2022/09/08 07:37:52;;;;;;;2.67;0.55;;;18.70;98.50;;;;;;4906115;29;20509;-75
2022/09/08 07:40:38;;;;;;;2.33;0.40;;;18.60;98.50;;;;;;4901243;29;20036;-74
2022/09/08 07:43:13;;;;;;;1.98;1.02;;;18.60;98.60;;;;;;4902770;29;20052;-73
2022/09/08 07:45:58;;;;;;;4.72;0.45;;;18.60;98.80;;;;;;4901472;29;20036;-72
2022/09/08 07:48:43;;;;;;;2.05;0.40;;;18.60;99.00;;;;;;4902365;29;20029;-73
2022/09/08 07:51:14;;;;;;;2.58;0.77;;;18.50;99.20;;;;;;4910649;29;20476;-72
2022/09/08 07:53:50;;;;;;;4.97;1.63;;;18.50;99.40;;;;;;4913515;29;20047;-74
2022/09/08 07:56:43;;;;;;;1.48;0.50;;;18.40;99.60;;;;;;4910355;29;20383;-75
2022/09/08 07:59:19;;;;;;;2.88;0.77;;;18.30;99.80;;;;;;4901730;29;20032;-74
2022/09/08 08:01:46;;;;;;;4.43;0.80;;;18.30;99.90;;;;;;4914238;29;20062;-73
2022/09/08 08:04:39;;;;;;;5.25;0.88;;;18.20;99.90;;;;;;4913990;29;20028;-73
2022/09/08 08:07:12;;;;;;;5.47;0.73;;;18.20;99.90;;;;;;4910267;29;20032;-73
2022/09/08 08:09:57;;;;;;;6.15;1.55;;;18.20;99.90;;;;;;4909869;29;20048;-73
2022/09/08 08:12:37;;;;;;;7.72;0.68;;;18.20;99.90;;;;;;4900051;29;20031;-74
2022/09/08 08:15:22;;;;;;;5.50;0.63;;;18.10;99.90;;;;;;4910958;29;20399;-74
2022/09/08 08:18:17;;;;;;;6.13;1.60;;;18.00;99.90;;;;;;4908704;29;20083;-72
2022/09/08 08:21:16;;;;;;;4.07;0.80;;;18.00;99.90;;;;;;4905094;29;20115;-73
2022/09/08 08:23:57;;;;;;;2.80;0.77;;;17.90;99.90;;;;;;4895933;29;20391;-72
2022/09/08 08:26:36;;;;;;;5.57;0.70;;;17.90;99.90;;;;;;4908203;29;20127;-74
2022/09/08 08:29:31;;;;;;;2.97;0.77;;;17.90;99.90;;;;;;4897717;29;20578;-73
2022/09/08 08:32:11;;;;;;;5.60;1.10;;;17.80;99.90;;;;;;4902347;29;20024;-73
2022/09/08 08:34:57;;;;;;;2.92;0.63;;;17.80;99.90;;;;;;4906437;29;20021;-73
2022/09/08 08:37:30;;;;;;;1.77;0.60;;;17.80;99.90;;;;;;4880900;29;20383;-73
2022/09/08 08:40:00;;;;;;;4.07;1.02;;;17.80;99.90;;;;;;4902758;29;20063;-73
2022/09/08 08:42:42;;;;;;;4.53;0.65;;;17.80;99.90;;;;;;4909909;29;20099;-74
2022/09/08 08:45:45;;;;;;;6.18;0.95;;;17.80;99.90;;;;;;4906678;29;20035;-74
2022/09/08 08:48:24;;;;;;;4.07;0.88;;;17.80;99.90;;;;;;4816255;29;20038;-74
2022/09/08 08:51:06;;;;;;;4.97;1.40;;;17.70;99.90;;;;;;4895898;29;20040;-74
2022/09/08 08:53:51;;;;;;;7.50;2.20;;;17.80;99.90;;;;;;4909755;29;20086;-75
2022/09/08 08:56:34;;;;;;;6.18;1.02;;;17.70;99.90;;;;;;4899632;29;20131;-74
2022/09/08 08:59:14;;;;;;;4.32;0.93;;;17.70;99.90;;;;;;4901939;29;20055;-74
2022/09/08 09:01:59;;;;;;;5.25;1.17;;;17.70;99.90;;;;;;4899147;29;20100;-72
2022/09/08 09:04:35;;;;;;;7.57;0.85;;;17.70;99.90;;;;;;4902078;29;20032;-74
2022/09/08 09:07:27;;;;;;;11.77;1.00;;;17.70;99.90;;;;;;4901793;29;20048;-73
2022/09/08 09:10:09;;;;;;;7.60;0.90;;;17.70;99.90;;;;;;4902036;29;20059;-75
2022/09/08 09:12:55;;;;;;;4.85;1.38;;;17.60;99.90;;;;;;4910789;29;20054;-74
2022/09/08 09:15:22;;;;;;;6.88;1.35;;;17.60;99.90;;;;;;4900770;29;20047;-73
2022/09/08 09:18:02;;;;;;;4.07;0.98;;;17.60;99.90;;;;;;4907553;29;20062;-72
2022/09/08 09:20:48;;;;;;;6.32;0.95;;;17.60;99.90;;;;;;4885452;29;20090;-77
2022/09/08 09:23:36;;;;;;;9.40;1.60;;;17.60;99.90;;;;;;4904496;29;20044;-73
2022/09/08 09:26:26;;;;;;;4.40;0.93;;;17.60;99.90;;;;;;4905089;29;20036;-74
2022/09/08 09:29:19;;;;;;;3.40;0.88;;;17.60;99.90;;;;;;4890121;29;20048;-74
2022/09/08 09:32:08;;;;;;;8.57;1.08;;;17.60;99.90;;;;;;4899287;29;20028;-74
2022/09/08 09:35:13;;;;;;;9.85;1.85;;;17.60;99.90;;;;;;4900002;29;20044;-75
2022/09/08 09:37:54;;;;;;;5.38;0.95;;;17.60;99.90;;;;;;4901192;29;20035;-74
2022/09/08 09:40:32;;;;;;;6.13;1.30;;;17.60;99.90;;;;;;4901351;29;20036;-75
2022/09/08 09:43:17;;;;;;;11.98;1.80;;;17.60;99.90;;;;;;4904301;29;20084;-75
2022/09/08 09:45:48;;;;;;;5.68;0.73;;;17.60;99.90;;;;;;4901112;29;20025;-75
2022/09/08 09:48:36;;;;;;;4.28;1.25;;;17.50;99.90;;;;;;4901895;29;20543;-74
2022/09/08 09:51:26;;;;;;;3.97;1.08;;;17.50;99.90;;;;;;4902016;29;20032;-74
2022/09/08 09:54:27;;;;;;;6.43;1.52;;;17.50;99.90;;;;;;4897890;29;20063;-76
2022/09/08 09:56:54;;;;;;;4.88;1.30;;;17.50;99.90;;;;;;4899490;29;20123;-75
2022/09/08 10:00:04;;;;;;;11.48;1.33;;;17.50;99.90;;;;;;4902684;29;20440;-74
2022/09/08 10:02:44;;;;;;;4.70;0.93;;;17.50;99.90;;;;;;4902471;29;20124;-75
2022/09/08 10:05:41;;;;;;;5.05;1.48;;;17.50;99.90;;;;;;4904271;29;20348;-75
2022/09/08 10:08:26;;;;;;;9.38;1.83;;;17.50;99.90;;;;;;4901553;29;20043;-74
2022/09/08 10:11:08;;;;;;;8.15;1.40;;;17.50;99.90;;;;;;4900189;29;20099;-75
2022/09/08 10:13:48;;;;;;;9.10;1.85;;;17.50;99.90;;;;;;4906834;29;20075;-75
2022/09/08 10:16:33;;;;;;;8.50;1.30;;;17.50;99.90;;;;;;4904123;29;20892;-74
2022/09/08 10:19:13;;;;;;;7.60;1.47;;;17.50;99.90;;;;;;4907066;29;20697;-74
2022/09/08 10:22:11;;;;;;;10.57;2.30;;;17.50;99.90;;;;;;4903984;29;20381;-75
2022/09/08 10:25:09;;;;;;;12.63;3.00;;;17.50;99.90;;;;;;4904916;29;20128;-75
2022/09/08 10:27:42;;;;;;;9.50;2.05;;;17.50;99.90;;;;;;4905762;29;20029;-75
2022/09/08 10:30:13;;;;;;;10.18;2.17;;;17.50;99.90;;;;;;4903755;29;20742;-75
2022/09/08 10:33:12;;;;;;;7.78;1.63;;;17.40;99.90;;;;;;4907044;29;20158;-75
2022/09/08 10:35:48;;;;;;;4.68;1.73;;;17.40;99.90;;;;;;4902251;29;20175;-75
2022/09/08 10:38:44;;;;;;;2.75;1.02;;;17.40;99.90;;;;;;4900795;29;20107;-74
2022/09/08 10:41:32;;;;;;;7.53;1.50;;;17.40;99.90;;;;;;4903180;29;20028;-74
2022/09/08 10:44:09;;;;;;;5.22;0.90;;;17.40;99.90;;;;;;4904656;29;20179;-75
2022/09/08 10:46:45;;;;;;;6.72;1.42;;;17.40;99.90;;;;;;4902467;29;20028;-75
2022/09/08 10:49:30;;;;;;;6.80;1.23;;;17.40;99.90;;;;;;4898845;29;20035;-74
2022/09/08 10:52:24;;;;;;;7.90;1.45;;;17.40;99.90;;;;;;4901619;29;20522;-74
2022/09/08 10:55:11;;;;;;;8.65;2.08;;;17.40;99.90;;;;;;4902962;29;20025;-75
2022/09/08 10:58:11;;;;;;;8.83;2.80;;;17.30;99.90;;;;;;4906282;29;20048;-75
2022/09/08 11:00:56;;;;;;;4.75;1.25;;;17.30;99.90;;;;;;4905610;29;20317;-75
2022/09/08 11:03:56;;;;;;;5.78;1.98;;;17.20;99.90;;;;;;4904364;29;20046;-74
2022/09/08 11:07:04;;;;;;;3.85;0.82;;;17.20;99.90;;;;;;4906258;29;20039;-75
2022/09/08 11:09:37;;;;;;;5.20;1.23;;;17.20;99.90;;;;;;4854215;29;20405;-74
2022/09/08 11:12:31;;;;;;;5.05;1.30;;;17.20;99.90;;;;;;4903538;29;20793;-75
2022/09/08 11:15:20;;;;;;;8.75;1.42;;;17.20;99.90;;;;;;4904188;29;20143;-74
2022/09/08 11:17:52;;;;;;;7.57;1.48;;;17.10;99.90;;;;;;4902889;29;20067;-76
2022/09/08 11:20:25;;;;;;;4.40;0.85;;;17.10;99.90;;;;;;4902431;29;20823;-74
2022/09/08 11:23:07;;;;;;;13.98;1.63;;;17.10;99.90;;;;;;4902160;29;20135;-75
2022/09/08 11:26:04;;;;;;;6.65;1.38;;;17.10;99.90;;;;;;4903054;29;20103;-75
2022/09/08 11:28:52;;;;;;;2.63;1.10;;;17.00;99.90;;;;;;4899411;29;20040;-76
2022/09/08 11:32:05;;;;;;;2.97;0.90;;;17.00;99.90;;;;;;4900799;29;20036;-75
2022/09/08 11:34:44;;;;;;;5.38;1.08;;;17.00;99.90;;;;;;4904420;29;20032;-74
2022/09/08 11:37:24;;;;;;;6.95;1.35;;;17.10;99.90;;;;;;4904231;29;20043;-75
2022/09/08 11:40:06;;;;;;;5.68;2.17;;;17.10;99.90;;;;;;4906876;29;20040;-75
2022/09/08 11:42:46;;;;;;;5.57;1.70;;;17.10;99.90;;;;;;4903544;29;20028;-75
2022/09/08 11:45:17;;;;;;;7.18;1.77;;;17.00;99.90;;;;;;4901042;29;20028;-74
2022/09/08 11:47:59;;;;;;;3.40;1.77;;;17.10;99.90;;;;;;4910122;29;20032;-75
2022/09/08 11:50:54;;;;;;;5.80;1.35;;;17.10;99.90;;;;;;4911543;29;20056;-75
2022/09/08 11:53:31;;;;;;;5.47;1.70;;;17.10;99.90;;;;;;4908869;29;20044;-76
2022/09/08 11:56:14;;;;;;;4.93;1.52;;;17.00;99.90;;;;;;4909463;29;20024;-75
2022/09/08 11:58:50;;;;;;;4.90;1.50;;;17.00;99.90;;;;;;4914287;29;20059;-76
2022/09/08 12:01:29;;;;;;;5.10;1.10;;;17.00;99.90;;;;;;4902704;29;20064;-77
2022/09/08 12:04:22;;;;;;;6.55;2.20;;;16.90;99.90;;;;;;4898946;29;20440;-76
2022/09/08 12:06:55;;;;;;;5.82;1.63;;;16.80;99.90;;;;;;4901960;29;20028;-76
2022/09/08 12:10:00;;;;;;;8.25;1.50;;;16.80;99.90;;;;;;4904316;29;20051;-76
2022/09/08 12:12:51;;;;;;;9.50;1.73;;;16.80;99.90;;;;;;4881374;29;20039;-77
2022/09/08 12:16:01;;;;;;;3.88;1.73;;;16.70;99.90;;;;;;4902269;29;20036;-74
2022/09/08 12:18:38;;;;;;;4.85;1.10;;;16.70;99.90;;;;;;4841396;29;20036;-74
2022/09/08 12:21:08;;;;;;;3.42;0.93;;;16.70;99.90;;;;;;4890491;29;20044;-75
2022/09/08 12:24:32;;;;;;;8.82;2.65;;;16.70;99.90;;;;;;4900502;29;20040;-76
2022/09/08 12:27:14;;;;;;;3.88;1.10;;;16.70;99.90;;;;;;4825239;29;20130;-76
2022/09/08 12:30:00;;;;;;;8.80;1.67;;;16.60;99.90;;;;;;4900747;29;20036;-76
2022/09/08 12:32:54;;;;;;;3.20;0.93;;;16.60;99.90;;;;;;4902126;29;20483;-74
2022/09/08 12:35:29;;;;;;;3.70;1.77;;;16.50;99.90;;;;;;4899242;29;20718;-76
2022/09/08 12:37:59;;;;;;;6.75;1.92;;;16.50;99.90;;;;;;4894724;29;20131;-74
2022/09/08 12:40:51;;;;;;;9.63;2.13;;;16.50;99.90;;;;;;4901168;29;20344;-74
2022/09/08 12:43:25;;;;;;;7.10;1.50;;;16.40;99.90;;;;;;4900444;29;20118;-74
2022/09/08 12:46:13;;;;;;;6.45;1.60;;;16.40;99.90;;;;;;4905968;29;20038;-75
2022/09/08 12:48:57;;;;;;;5.72;1.67;;;16.40;99.90;;;;;;4902569;29;20040;-74
2022/09/08 12:51:31;;;;;;;3.75;1.20;;;16.40;99.90;;;;;;4901449;29;20032;-75
2022/09/08 12:54:25;;;;;;;2.58;0.95;;;16.30;99.90;;;;;;4898820;29;20032;-75
2022/09/08 12:57:11;;;;;;;5.07;0.90;;;16.30;99.90;;;;;;4898749;29;20123;-75
2022/09/08 12:59:50;;;;;;;4.07;1.37;;;16.20;99.90;;;;;;4899997;29;20024;-75
2022/09/08 13:02:35;;;;;;;7.03;1.13;;;16.20;99.90;;;;;;4904308;29;20044;-75
2022/09/08 13:05:30;;;;;;;5.57;0.93;;;16.10;99.90;;;;;;4899867;29;20040;-74
2022/09/08 13:08:21;;;;;;;3.90;1.02;;;16.00;99.90;;;;;;4900344;29;20042;-75
2022/09/08 13:10:53;;;;;;;8.35;1.55;;;16.00;99.90;;;;;;4900555;29;20044;-74
2022/09/08 13:13:40;;;;;;;7.38;1.95;;;16.00;99.90;;;;;;4900528;29;20080;-73
2022/09/08 13:16:48;;;;;;;5.55;1.42;;;15.90;99.90;;;;;;4899995;29;20149;-75
2022/09/08 13:19:27;;;;;;;6.63;1.73;;;16.00;99.90;;;;;;4902160;29;20032;-79
2022/09/08 13:22:23;;;;;;;8.68;1.38;;;16.00;99.90;;;;;;4899591;29;20504;-75
2022/09/08 13:24:56;;;;;;;4.90;1.23;;;16.00;99.90;;;;;;4899043;29;20123;-75
2022/09/08 13:27:51;;;;;;;4.90;1.20;;;16.00;99.90;;;;;;4903103;29;20024;-75
2022/09/08 13:30:45;;;;;;;8.05;1.40;;;16.00;99.90;;;;;;4901111;29;20037;-76
2022/09/08 13:33:26;;;;;;;7.93;1.08;;;16.00;99.90;;;;;;4899169;29;20515;-75
2022/09/08 13:36:13;;;;;;;7.03;1.88;;;16.00;99.90;;;;;;4904198;29;20032;-76
2022/09/08 13:38:52;;;;;;;8.60;1.65;;;16.00;99.90;;;;;;4901649;29;20040;-76
2022/09/08 13:42:03;;;;;;;6.53;1.52;;;16.00;99.90;;;;;;4898403;29;20396;-75
2022/09/08 13:44:30;;;;;;;5.47;1.58;;;16.00;99.90;;;;;;4898022;29;20039;-76
2022/09/08 13:47:06;;;;;;;5.13;1.48;;;16.00;99.90;;;;;;4898900;29;20083;-74
2022/09/08 13:50:08;;;;;;;3.17;1.20;;;16.00;99.90;;;;;;4899810;29;20034;-77